Piracaia, Brazil
Current Conditions -  °F | °C
As of 11:00 PM on Monday 20 Oct 2014 (Local Time) from SBGR Reporting Station
Broken Clouds Broken Clouds  
Wind Chill: 63°   Ceiling: 800
Heat Index: 63°   Visibility: 5mi
Dew Point: 61°   Wind: 7mph
Humidity: 94%   Direction: 170°S
Pressure: 30.15"   Gusts: NA
Location:  23.05°S, 46.36°W
Report Text: SBGR 210200Z 17006KT 8000 BKN008 17/16 Q1021
Loading
Personal Weather Stations






























Interactive Weather Map
Tropical Storm Tracking
New forecast layout! Learn more

10-Day Weather Forecast

Advertisements
Track Severe Weather on mobile